Terminal Aerodrome Forecast
Issued by NWS Portland, OR

Home | Current Version | Previous Version | Text Only | Print | Product List | Glossary On
Versions: 1 2 3 4 5 6 7 8 9 10 11 12 13 14 15 16 17 18 19 20 21 22 23 24 25 26 27 28 29 30 31 32 33
000
FTUS46 KPQR 281504 AAA
TAFAST
TAF AMD
KAST 281504Z 2815/2912 22004KT 3SM BR BKN003
     FM281700 33007KT P6SM FEW007
     FM282100 32012G20KT P6SM SKC
     FM290300 30010KT P6SM FEW010
     FM290900 29005KT P6SM BKN011=

USA.gov is the U.S. government's official web portal to all federal, state and local government web resources and services.